Peoria, Illinois
Current Conditions -  °F | °C
As of 2:54 PM on Friday 19 Dec 2014 (Local Time) from KPIA Reporting Station
Broken Clouds Broken Clouds  
Wind Chill: 31°   Ceiling: 8000
Heat Index: 35°   Visibility: 10mi
Dew Point: 20°   Wind: 5mph
Humidity: 54%   Direction: 260°W
Pressure: 30.32"   Gusts: NA
Location:  40.69°N, 89.59°W
Report Text: KPIA 192054Z 26004KT 10SM SCT048 BKN080 02/M07 A3032 RMK AO2 SLP274 T00171067 53004
Loading
Personal Weather Stations






























Interactive Weather Map New forecast layout! Learn more

10-Day Weather Forecast

Advertisements
Track Severe Weather on mobile